Time;durP1;ratioP1;P1;durP2;ratioP2;P2;SDS_P1;SDS_P2;PMS_P1;PMS_P2;Temp;Humidity;BMP_temperature;BMP_pressure;BME280_temperature;BME280_humidity;BME280_pressure;Samples;Min_cycle;Max_cycle;Signal;HPM_P1;HPM_P2
2022/02/22 00:01:46;;;;;;;1.60;1.20;;;6.30;98.20;;;;;;4989714;28;20551;-72
2022/02/22 00:04:13;;;;;;;1.60;1.43;;;6.30;98.20;;;;;;4989686;28;20961;-73
2022/02/22 00:06:40;;;;;;;1.60;1.30;;;6.30;98.20;;;;;;4988204;28;20473;-71
2022/02/22 00:09:07;;;;;;;1.60;1.37;;;6.30;98.20;;;;;;4989902;28;20489;-74
2022/02/22 00:11:34;;;;;;;1.60;1.30;;;6.30;98.20;;;;;;4989512;28;20457;-72
2022/02/22 00:14:01;;;;;;;1.60;1.30;;;6.30;98.20;;;;;;4990106;28;20468;-72
2022/02/22 00:16:27;;;;;;;1.60;1.33;;;6.30;98.20;;;;;;4990952;28;20457;-73
2022/02/22 00:18:56;;;;;;;1.60;1.33;;;6.20;98.20;;;;;;4988348;28;20536;-73
2022/02/22 00:21:22;;;;;;;1.60;1.30;;;6.20;98.20;;;;;;4997263;28;20476;-73
2022/02/22 00:23:49;;;;;;;1.60;1.30;;;6.20;98.20;;;;;;4988218;28;20457;-73
2022/02/22 00:26:16;;;;;;;1.60;1.30;;;6.20;98.20;;;;;;4990113;28;20580;-74
2022/02/22 00:28:43;;;;;;;1.60;1.20;;;6.20;98.20;;;;;;4989968;28;20495;-73
2022/02/22 00:31:10;;;;;;;1.60;1.40;;;6.10;98.20;;;;;;4990960;28;20659;-73
2022/02/22 00:33:37;;;;;;;1.70;1.53;;;6.10;98.20;;;;;;4988965;28;20468;-73
2022/02/22 00:36:05;;;;;;;1.60;1.40;;;6.10;98.20;;;;;;4990939;28;20493;-73
2022/02/22 00:38:32;;;;;;;1.60;1.30;;;6.10;98.20;;;;;;4989480;28;20520;-73
2022/02/22 00:40:59;;;;;;;1.60;1.30;;;6.20;98.20;;;;;;4989381;28;20461;-73
2022/02/22 00:43:26;;;;;;;1.60;1.40;;;6.10;98.20;;;;;;4989878;28;21008;-75
2022/02/22 00:45:52;;;;;;;1.60;1.30;;;6.10;98.20;;;;;;4980764;28;20499;-71
2022/02/22 00:48:20;;;;;;;1.60;1.40;;;6.10;98.20;;;;;;5005860;28;20491;-72
2022/02/22 00:50:46;;;;;;;1.60;1.30;;;6.00;98.20;;;;;;4991071;28;20492;-74
2022/02/22 00:53:14;;;;;;;1.60;1.40;;;6.00;98.20;;;;;;4989732;28;20484;-73
2022/02/22 00:55:41;;;;;;;1.60;1.43;;;6.00;98.20;;;;;;4990368;28;20469;-73
2022/02/22 00:58:08;;;;;;;1.60;1.37;;;6.00;98.20;;;;;;4996464;28;20483;-74
2022/02/22 01:00:35;;;;;;;1.60;1.30;;;6.00;98.20;;;;;;4988883;28;20471;-74
2022/02/22 01:03:02;;;;;;;1.60;1.30;;;5.90;98.20;;;;;;4991462;28;20939;-73
2022/02/22 01:05:29;;;;;;;1.60;1.50;;;5.90;98.20;;;;;;4993608;28;20464;-73
2022/02/22 01:07:56;;;;;;;1.60;1.30;;;5.90;98.20;;;;;;4990379;28;20469;-73
2022/02/22 01:10:25;;;;;;;1.60;1.20;;;5.90;98.20;;;;;;4989174;28;20497;-73
2022/02/22 01:12:52;;;;;;;1.60;1.30;;;5.90;98.20;;;;;;4994553;28;20526;-73
2022/02/22 01:15:18;;;;;;;1.60;1.33;;;5.90;98.20;;;;;;4989458;28;20955;-72
2022/02/22 01:17:45;;;;;;;1.60;1.30;;;5.90;98.20;;;;;;4995668;28;20491;-74
2022/02/22 01:20:13;;;;;;;1.70;1.40;;;5.90;98.20;;;;;;4997867;28;20856;-72
2022/02/22 01:22:40;;;;;;;1.60;1.30;;;5.80;98.20;;;;;;4995246;28;20869;-72
2022/02/22 01:25:09;;;;;;;1.60;1.37;;;5.80;98.20;;;;;;4989644;28;20473;-72
2022/02/22 01:27:38;;;;;;;1.60;1.30;;;5.80;98.20;;;;;;4993722;28;20501;-73
2022/02/22 01:30:06;;;;;;;1.60;1.50;;;5.80;98.20;;;;;;4988134;28;20512;-73
2022/02/22 01:32:33;;;;;;;1.63;1.50;;;5.80;98.20;;;;;;4996088;28;21019;-73
2022/02/22 01:35:00;;;;;;;1.60;1.30;;;5.70;98.20;;;;;;4990901;28;20472;-73
2022/02/22 01:37:27;;;;;;;1.60;1.20;;;5.70;98.20;;;;;;4994212;28;20821;-73
2022/02/22 01:39:53;;;;;;;1.60;1.40;;;5.70;98.20;;;;;;5001823;28;20504;-73
2022/02/22 01:42:21;;;;;;;1.60;1.30;;;5.70;98.20;;;;;;4991255;28;20469;-73
2022/02/22 01:44:50;;;;;;;1.60;1.30;;;5.70;98.20;;;;;;4989594;28;20662;-73
2022/02/22 01:47:17;;;;;;;1.60;1.30;;;5.70;98.20;;;;;;4989733;28;20488;-73
2022/02/22 01:49:44;;;;;;;1.60;1.40;;;5.70;98.20;;;;;;4990184;28;20485;-74
2022/02/22 01:52:11;;;;;;;1.60;1.40;;;5.60;98.20;;;;;;4992923;28;20499;-72
2022/02/22 01:54:39;;;;;;;1.60;1.30;;;5.70;98.20;;;;;;4993031;28;20469;-73
2022/02/22 01:57:06;;;;;;;1.60;1.30;;;5.70;98.20;;;;;;4989196;28;20537;-73
2022/02/22 01:59:33;;;;;;;1.63;1.30;;;5.70;98.20;;;;;;4988505;28;20568;-73
2022/02/22 02:02:01;;;;;;;1.60;1.30;;;5.70;98.20;;;;;;4991886;28;20469;-73
2022/02/22 02:04:29;;;;;;;1.60;1.30;;;5.70;98.20;;;;;;4988565;28;20472;-73
2022/02/22 02:06:56;;;;;;;1.60;1.30;;;5.70;98.20;;;;;;4993595;28;20585;-73
2022/02/22 02:09:23;;;;;;;1.60;1.30;;;5.70;98.20;;;;;;4991088;28;20492;-72
2022/02/22 02:11:54;;;;;;;1.60;1.40;;;5.70;98.20;;;;;;4997686;28;20465;-73
2022/02/22 02:14:21;;;;;;;1.60;1.30;;;5.60;98.20;;;;;;4993196;28;20461;-73
2022/02/22 02:16:48;;;;;;;1.60;1.40;;;5.60;98.20;;;;;;4997353;28;20516;-74
2022/02/22 02:19:18;;;;;;;1.60;1.40;;;5.60;98.20;;;;;;4999782;28;20505;-74
2022/02/22 02:21:45;;;;;;;1.60;1.30;;;5.60;98.20;;;;;;5003350;28;20463;-72
2022/02/22 02:24:16;;;;;;;1.60;1.30;;;5.60;98.20;;;;;;4992928;28;20460;-75
2022/02/22 02:26:44;;;;;;;1.70;1.50;;;5.60;98.20;;;;;;4991974;28;20571;-73
2022/02/22 02:29:13;;;;;;;1.60;1.40;;;5.60;98.20;;;;;;5000008;28;20571;-73
2022/02/22 02:31:41;;;;;;;1.60;1.20;;;5.60;98.20;;;;;;4993115;28;20465;-72
2022/02/22 02:34:09;;;;;;;1.60;1.30;;;5.50;98.20;;;;;;4992005;28;20634;-74
2022/02/22 02:36:38;;;;;;;1.60;1.30;;;5.60;98.20;;;;;;4989752;28;20494;-73
2022/02/22 02:39:06;;;;;;;1.60;1.40;;;5.50;98.20;;;;;;5000980;28;20577;-72
2022/02/22 02:41:35;;;;;;;1.60;1.30;;;5.50;98.20;;;;;;4989484;28;21049;-75
2022/02/22 02:44:03;;;;;;;1.60;1.30;;;5.50;98.20;;;;;;4983681;28;20467;-73
2022/02/22 02:46:30;;;;;;;1.60;1.30;;;5.50;98.20;;;;;;4998149;28;20475;-73
2022/02/22 02:48:57;;;;;;;1.70;1.43;;;5.50;98.20;;;;;;5004874;28;20619;-72
2022/02/22 02:51:25;;;;;;;1.60;1.40;;;5.50;98.20;;;;;;4982404;28;20476;-73
2022/02/22 02:53:53;;;;;;;1.60;1.30;;;5.50;98.20;;;;;;4991941;28;20548;-72
2022/02/22 02:56:22;;;;;;;1.70;1.40;;;5.50;98.20;;;;;;5004908;28;20476;-72
2022/02/22 02:58:51;;;;;;;1.60;1.30;;;5.50;98.20;;;;;;4990020;28;20973;-72
2022/02/22 03:01:18;;;;;;;1.60;1.40;;;5.50;98.20;;;;;;4987866;28;20460;-72
2022/02/22 03:03:45;;;;;;;1.60;1.30;;;5.50;98.20;;;;;;4988727;28;20473;-72
2022/02/22 03:06:12;;;;;;;1.73;1.63;;;5.50;98.20;;;;;;4993603;28;20499;-72
2022/02/22 03:08:39;;;;;;;1.60;1.40;;;5.50;98.20;;;;;;4990629;28;20564;-72
2022/02/22 03:11:05;;;;;;;1.60;1.30;;;5.50;98.20;;;;;;4991141;28;20460;-72
2022/02/22 03:13:32;;;;;;;1.60;1.30;;;5.50;98.20;;;;;;4993146;28;20559;-72
2022/02/22 03:16:00;;;;;;;1.60;1.30;;;5.50;98.20;;;;;;4997157;28;20468;-72
2022/02/22 03:18:27;;;;;;;1.60;1.30;;;5.50;98.20;;;;;;4987635;28;20870;-72
2022/02/22 03:20:54;;;;;;;1.60;1.30;;;5.50;98.20;;;;;;4996048;28;20461;-72
2022/02/22 03:23:21;;;;;;;1.60;1.30;;;5.50;98.20;;;;;;4995795;28;20467;-72
2022/02/22 03:25:49;;;;;;;1.60;1.30;;;5.50;98.20;;;;;;4990224;28;20465;-73
2022/02/22 03:28:16;;;;;;;1.60;1.40;;;5.40;98.20;;;;;;4991687;28;20481;-72
2022/02/22 03:30:43;;;;;;;1.60;1.40;;;5.40;98.20;;;;;;4993388;28;20823;-72
2022/02/22 03:33:12;;;;;;;1.60;1.30;;;5.40;98.20;;;;;;4992332;28;20472;-72
2022/02/22 03:35:39;;;;;;;1.67;1.43;;;5.40;98.20;;;;;;4989566;28;20457;-72
2022/02/22 03:38:07;;;;;;;1.60;1.30;;;5.40;98.20;;;;;;5000358;28;20476;-72
2022/02/22 03:40:33;;;;;;;1.60;1.30;;;5.30;98.20;;;;;;4990149;28;20457;-72
2022/02/22 03:43:01;;;;;;;1.60;1.40;;;5.30;98.20;;;;;;4990492;28;20464;-72
2022/02/22 03:45:27;;;;;;;1.60;1.50;;;5.30;98.20;;;;;;4990172;28;20473;-72
2022/02/22 03:47:55;;;;;;;1.60;1.30;;;5.20;98.20;;;;;;4990133;28;20496;-72
2022/02/22 03:50:23;;;;;;;1.67;1.43;;;5.20;98.20;;;;;;4999120;28;20511;-73
2022/02/22 03:52:50;;;;;;;1.60;1.30;;;5.20;98.20;;;;;;4995310;28;20469;-72
2022/02/22 03:55:18;;;;;;;1.60;1.40;;;5.10;98.20;;;;;;4990123;28;20461;-72
2022/02/22 03:57:45;;;;;;;1.60;1.30;;;5.10;98.20;;;;;;4990406;28;20458;-72
2022/02/22 04:00:15;;;;;;;1.60;1.30;;;5.10;98.20;;;;;;4988557;28;20484;-72
2022/02/22 04:02:41;;;;;;;1.90;1.80;;;5.10;98.20;;;;;;4986422;28;20905;-73
2022/02/22 04:05:10;;;;;;;1.60;1.30;;;5.00;98.20;;;;;;4989413;28;20628;-72
2022/02/22 04:07:39;;;;;;;1.60;1.30;;;5.00;98.20;;;;;;4989050;28;20638;-72
2022/02/22 04:10:07;;;;;;;1.60;1.30;;;5.00;98.20;;;;;;4990162;28;20500;-72
2022/02/22 04:12:34;;;;;;;1.60;1.40;;;4.90;98.20;;;;;;4993077;28;20472;-72
2022/02/22 04:15:01;;;;;;;1.90;1.50;;;4.90;98.20;;;;;;4989534;28;20461;-72
2022/02/22 04:17:28;;;;;;;1.60;1.40;;;4.90;98.20;;;;;;4995062;28;20465;-72
2022/02/22 04:19:54;;;;;;;1.60;1.30;;;4.90;98.20;;;;;;4996078;28;20498;-72
2022/02/22 04:22:22;;;;;;;1.63;1.37;;;4.90;98.20;;;;;;4997065;28;20465;-72
2022/02/22 04:24:50;;;;;;;1.60;1.30;;;4.90;98.20;;;;;;4988457;28;20520;-72
2022/02/22 04:27:17;;;;;;;1.60;1.30;;;4.90;98.20;;;;;;4991384;28;21018;-72
2022/02/22 04:29:43;;;;;;;1.60;1.40;;;4.90;98.20;;;;;;4988227;28;20485;-72
2022/02/22 04:32:10;;;;;;;1.70;1.40;;;4.90;98.20;;;;;;4991722;28;20468;-72
2022/02/22 04:34:39;;;;;;;1.67;1.30;;;4.90;98.20;;;;;;4988407;28;20449;-72
2022/02/22 04:37:06;;;;;;;1.60;1.30;;;4.90;98.20;;;;;;4992202;28;20476;-72
2022/02/22 04:39:33;;;;;;;1.67;1.40;;;4.90;98.20;;;;;;4987612;28;20575;-72
2022/02/22 04:42:01;;;;;;;1.67;1.40;;;4.90;98.20;;;;;;4989379;28;20484;-72
2022/02/22 04:44:28;;;;;;;1.60;1.30;;;4.90;98.20;;;;;;4994902;28;20469;-72
2022/02/22 04:46:54;;;;;;;1.60;1.30;;;4.90;98.20;;;;;;4990265;28;20480;-72
2022/02/22 04:49:21;;;;;;;1.60;1.40;;;4.90;98.20;;;;;;4991109;28;20488;-73
2022/02/22 04:51:48;;;;;;;1.60;1.30;;;4.90;98.20;;;;;;4989292;28;20984;-72
2022/02/22 04:54:15;;;;;;;1.60;1.30;;;4.80;98.20;;;;;;4994281;28;20472;-73
2022/02/22 04:56:41;;;;;;;1.60;1.30;;;4.80;98.20;;;;;;4989026;28;20469;-72
2022/02/22 04:59:09;;;;;;;1.60;1.30;;;4.80;98.20;;;;;;4988562;28;20494;-72
2022/02/22 05:01:36;;;;;;;1.60;1.30;;;4.80;98.20;;;;;;4989277;28;20460;-72
2022/02/22 05:04:03;;;;;;;1.60;1.40;;;4.70;98.20;;;;;;4988773;28;20465;-73
2022/02/22 05:06:30;;;;;;;1.67;1.43;;;4.70;98.20;;;;;;4993198;28;20518;-72
2022/02/22 05:08:56;;;;;;;1.67;1.40;;;4.70;98.20;;;;;;4982319;28;20608;-72
2022/02/22 05:11:23;;;;;;;1.70;1.50;;;4.70;98.20;;;;;;4977390;28;20482;-72
2022/02/22 05:13:50;;;;;;;1.63;1.40;;;4.70;98.20;;;;;;5006682;28;20460;-72
2022/02/22 05:16:18;;;;;;;2.40;2.20;;;4.60;98.20;;;;;;4985341;28;20486;-72
2022/02/22 05:18:45;;;;;;;1.60;1.40;;;4.60;98.20;;;;;;4987479;28;20866;-72
2022/02/22 05:21:12;;;;;;;1.60;1.30;;;4.60;98.20;;;;;;4994661;28;20498;-72
2022/02/22 05:23:39;;;;;;;1.60;1.40;;;4.50;98.20;;;;;;4987693;28;20472;-72
2022/02/22 05:26:09;;;;;;;1.70;1.43;;;4.50;98.20;;;;;;4992255;28;20456;-72
2022/02/22 05:28:36;;;;;;;1.70;1.43;;;4.50;98.20;;;;;;4988841;28;20488;-70
2022/02/22 05:31:03;;;;;;;1.60;1.40;;;4.50;98.20;;;;;;4979768;28;20962;-72
2022/02/22 05:33:31;;;;;;;1.60;1.30;;;4.50;98.20;;;;;;5001004;28;20523;-73
2022/02/22 05:35:58;;;;;;;1.70;1.47;;;4.50;98.20;;;;;;4988034;28;20465;-72
2022/02/22 05:38:25;;;;;;;1.70;1.53;;;4.50;98.20;;;;;;4987754;28;20484;-72
2022/02/22 05:40:52;;;;;;;1.60;1.40;;;4.40;98.20;;;;;;4987235;28;20465;-72
2022/02/22 05:43:19;;;;;;;1.60;1.30;;;4.40;98.20;;;;;;4992138;28;20461;-72
2022/02/22 05:45:46;;;;;;;1.70;1.40;;;4.40;98.20;;;;;;4981376;28;20489;-73
2022/02/22 05:48:12;;;;;;;1.70;1.50;;;4.40;98.20;;;;;;4992639;28;20488;-70
2022/02/22 05:50:41;;;;;;;1.70;1.50;;;4.40;98.20;;;;;;4994437;28;20461;-70
2022/02/22 05:53:08;;;;;;;1.60;1.30;;;4.40;98.20;;;;;;4989996;28;20457;-70
2022/02/22 05:55:35;;;;;;;1.60;1.40;;;4.30;98.20;;;;;;4987664;28;20468;-71
2022/02/22 05:58:01;;;;;;;1.63;1.30;;;4.30;98.20;;;;;;4988663;28;20890;-70
2022/02/22 06:00:28;;;;;;;1.60;1.30;;;4.30;98.20;;;;;;4980277;28;20472;-71
2022/02/22 06:02:55;;;;;;;1.67;1.40;;;4.20;98.20;;;;;;4988806;28;20833;-70
2022/02/22 06:05:22;;;;;;;3.27;3.07;;;4.20;98.20;;;;;;4987414;28;20487;-70
2022/02/22 06:07:50;;;;;;;1.63;1.30;;;4.20;98.20;;;;;;4989923;28;20489;-72
2022/02/22 06:10:17;;;;;;;1.70;1.50;;;4.20;98.20;;;;;;4984732;28;20493;-72
2022/02/22 06:12:46;;;;;;;1.67;1.40;;;4.10;98.20;;;;;;4984097;28;20465;-70
2022/02/22 06:15:13;;;;;;;1.70;1.40;;;4.10;98.20;;;;;;4993143;28;20835;-71
2022/02/22 06:17:41;;;;;;;1.60;1.40;;;4.10;98.20;;;;;;4991026;28;20461;-71
2022/02/22 06:20:10;;;;;;;1.60;1.40;;;4.10;98.20;;;;;;4991726;28;20675;-70
2022/02/22 06:22:37;;;;;;;1.67;1.40;;;4.10;98.20;;;;;;4993494;28;20480;-71
2022/02/22 06:25:07;;;;;;;1.70;1.47;;;4.10;98.20;;;;;;4988391;28;20635;-72
2022/02/22 06:27:34;;;;;;;1.67;1.40;;;4.00;98.20;;;;;;4990567;28;21002;-73
2022/02/22 06:30:01;;;;;;;1.67;1.40;;;4.00;98.20;;;;;;4984896;28;20481;-72
2022/02/22 06:32:28;;;;;;;1.70;1.40;;;4.00;98.20;;;;;;4992388;28;20488;-71
2022/02/22 06:34:54;;;;;;;3.50;3.30;;;4.00;98.20;;;;;;4986050;28;20567;-71
2022/02/22 06:37:21;;;;;;;1.67;1.40;;;4.00;98.20;;;;;;4988135;28;20564;-71
2022/02/22 06:39:48;;;;;;;1.67;1.43;;;4.00;98.20;;;;;;4981507;28;20681;-71
2022/02/22 06:42:16;;;;;;;1.60;1.40;;;4.00;98.20;;;;;;4989310;28;20464;-71
2022/02/22 06:44:43;;;;;;;1.60;1.40;;;4.00;98.20;;;;;;4990425;28;20473;-71
2022/02/22 06:47:09;;;;;;;1.70;1.50;;;4.00;98.20;;;;;;4982039;28;20472;-71
2022/02/22 06:49:36;;;;;;;1.60;1.30;;;4.10;98.20;;;;;;4986797;28;20510;-71
2022/02/22 06:52:03;;;;;;;1.63;1.30;;;4.10;98.20;;;;;;4990653;28;20475;-71
2022/02/22 06:54:30;;;;;;;1.70;1.40;;;4.10;98.20;;;;;;4984239;28;20471;-71
2022/02/22 06:56:57;;;;;;;1.70;1.50;;;4.10;98.20;;;;;;4987739;28;20476;-71
2022/02/22 06:59:25;;;;;;;1.63;1.40;;;4.10;98.20;;;;;;4981810;28;20520;-71
2022/02/22 07:01:51;;;;;;;1.70;1.40;;;4.20;98.20;;;;;;4987421;28;20480;-71
2022/02/22 07:04:18;;;;;;;1.63;1.40;;;4.20;98.20;;;;;;4985965;28;20689;-71
2022/02/22 07:06:45;;;;;;;1.63;1.40;;;4.20;98.20;;;;;;4981251;28;20976;-71
2022/02/22 07:09:12;;;;;;;1.63;1.30;;;4.30;98.20;;;;;;4988422;28;21110;-71
2022/02/22 07:11:38;;;;;;;1.70;1.60;;;4.30;98.20;;;;;;4987290;28;20968;-71
2022/02/22 07:14:05;;;;;;;1.63;1.40;;;4.30;98.20;;;;;;4987852;28;20461;-71
2022/02/22 07:16:33;;;;;;;1.63;1.40;;;4.30;98.20;;;;;;4987876;28;20469;-71
2022/02/22 07:19:00;;;;;;;1.63;1.30;;;4.40;98.20;;;;;;4994761;28;21024;-70
2022/02/22 07:21:27;;;;;;;1.63;1.40;;;4.40;98.20;;;;;;4995313;28;20475;-71
2022/02/22 07:23:54;;;;;;;1.70;1.50;;;4.40;98.20;;;;;;5002154;28;20491;-71
2022/02/22 07:26:21;;;;;;;1.63;1.30;;;4.40;98.20;;;;;;4985296;28;20467;-71
2022/02/22 07:28:47;;;;;;;1.70;1.40;;;4.50;98.20;;;;;;4988358;28;20920;-71
2022/02/22 07:31:14;;;;;;;1.70;1.40;;;4.60;98.20;;;;;;4988435;28;20582;-71
2022/02/22 07:33:42;;;;;;;1.60;1.40;;;4.70;98.20;;;;;;4984912;28;20465;-71
2022/02/22 07:36:09;;;;;;;1.70;1.40;;;4.80;98.20;;;;;;4986850;28;20476;-71
2022/02/22 07:38:36;;;;;;;1.60;1.30;;;4.80;98.20;;;;;;4985695;28;20488;-70
2022/02/22 07:41:03;;;;;;;1.60;1.30;;;4.90;98.20;;;;;;4986182;28;20785;-71
2022/02/22 07:43:30;;;;;;;1.63;1.30;;;4.90;98.20;;;;;;4987021;28;21047;-70
2022/02/22 07:45:57;;;;;;;1.60;1.30;;;5.00;98.20;;;;;;4986153;28;20921;-71
2022/02/22 07:48:23;;;;;;;1.60;1.30;;;5.00;98.20;;;;;;4989949;28;20499;-71
2022/02/22 07:50:52;;;;;;;1.70;1.40;;;5.10;98.20;;;;;;4996412;28;20944;-71
2022/02/22 07:53:18;;;;;;;1.70;1.40;;;5.10;98.20;;;;;;4985853;28;20469;-71
2022/02/22 07:55:45;;;;;;;1.60;1.40;;;5.20;98.20;;;;;;4985595;28;20505;-71
2022/02/22 07:58:12;;;;;;;1.70;1.50;;;5.30;98.20;;;;;;4974960;28;20631;-70
2022/02/22 08:00:39;;;;;;;1.70;1.40;;;5.30;98.20;;;;;;4981242;28;20465;-71
2022/02/22 08:03:05;;;;;;;1.63;1.30;;;5.40;98.20;;;;;;4986999;28;20532;-71
2022/02/22 08:05:32;;;;;;;1.60;1.30;;;5.50;98.20;;;;;;4981091;28;20492;-71
2022/02/22 08:08:02;;;;;;;1.63;1.30;;;5.50;98.20;;;;;;4986742;28;20528;-71
2022/02/22 08:10:28;;;;;;;1.60;1.40;;;5.60;98.20;;;;;;4977715;28;21091;-71
2022/02/22 08:12:56;;;;;;;1.70;1.53;;;5.70;98.20;;;;;;4986353;28;20480;-71
2022/02/22 08:15:23;;;;;;;1.70;1.60;;;5.70;98.20;;;;;;4984735;28;20468;-71
2022/02/22 08:17:50;;;;;;;1.70;1.50;;;5.80;98.20;;;;;;4986574;28;20469;-71
2022/02/22 08:20:17;;;;;;;1.60;1.40;;;5.90;98.20;;;;;;4983296;28;20533;-71
2022/02/22 08:22:43;;;;;;;1.60;1.30;;;5.90;98.20;;;;;;4985550;28;20936;-71
2022/02/22 08:25:12;;;;;;;1.67;1.40;;;6.00;98.20;;;;;;4974252;28;20476;-72
2022/02/22 08:27:39;;;;;;;1.60;1.30;;;6.10;98.20;;;;;;4978123;28;20938;-71
2022/02/22 08:30:06;;;;;;;1.60;1.30;;;6.20;98.20;;;;;;4981150;28;20583;-70
2022/02/22 08:32:33;;;;;;;1.60;1.37;;;6.30;98.20;;;;;;4986143;28;20464;-70
2022/02/22 08:35:00;;;;;;;1.60;1.30;;;6.40;98.20;;;;;;4984835;28;20471;-71
2022/02/22 08:37:27;;;;;;;1.60;1.30;;;6.50;98.20;;;;;;4987490;28;20507;-70
2022/02/22 08:39:53;;;;;;;1.60;1.30;;;6.60;98.20;;;;;;4986581;28;20487;-71
2022/02/22 08:42:21;;;;;;;1.60;1.30;;;6.60;98.20;;;;;;4986468;28;20484;-71
2022/02/22 08:44:48;;;;;;;1.60;1.40;;;6.70;98.20;;;;;;4985016;28;21013;-70
2022/02/22 08:47:15;;;;;;;1.60;1.30;;;6.70;98.20;;;;;;4985635;28;20461;-70
2022/02/22 08:49:42;;;;;;;1.60;1.30;;;6.80;98.20;;;;;;4983757;28;20496;-70
2022/02/22 08:52:09;;;;;;;1.60;1.20;;;6.90;98.20;;;;;;4985341;28;20465;-71
2022/02/22 08:54:36;;;;;;;1.60;1.27;;;7.10;98.20;;;;;;4983651;28;20505;-71
2022/02/22 08:57:03;;;;;;;1.60;1.40;;;7.20;98.20;;;;;;4985619;28;20818;-73
2022/02/22 08:59:31;;;;;;;1.60;1.20;;;7.30;98.20;;;;;;4984688;28;20485;-72
2022/02/22 09:01:58;;;;;;;1.60;1.20;;;7.40;98.20;;;;;;4986207;28;20825;-72
2022/02/22 09:04:25;;;;;;;1.60;1.20;;;7.50;98.20;;;;;;4985185;28;20465;-72
2022/02/22 09:06:51;;;;;;;1.60;1.30;;;7.50;98.20;;;;;;4985296;28;20867;-73
2022/02/22 09:09:18;;;;;;;1.60;1.27;;;7.50;98.20;;;;;;4981100;28;20871;-73
2022/02/22 09:11:45;;;;;;;1.60;1.37;;;7.50;98.20;;;;;;4987330;28;20990;-74
2022/02/22 09:14:12;;;;;;;1.60;1.20;;;7.60;98.20;;;;;;4984375;28;20465;-72
2022/02/22 09:16:40;;;;;;;1.60;1.30;;;7.60;98.20;;;;;;4975189;28;20489;-73
2022/02/22 09:19:07;;;;;;;1.60;1.30;;;7.70;98.20;;;;;;4982770;28;20488;-73
2022/02/22 09:21:34;;;;;;;1.60;1.20;;;7.70;98.20;;;;;;4976053;28;20473;-71
2022/02/22 09:24:01;;;;;;;1.63;1.30;;;7.80;98.20;;;;;;4986140;28;20469;-73
2022/02/22 09:26:27;;;;;;;1.60;1.20;;;7.80;98.20;;;;;;4984519;28;20466;-72
2022/02/22 09:28:56;;;;;;;1.60;1.20;;;7.90;98.20;;;;;;4984403;28;20496;-72
2022/02/22 09:31:25;;;;;;;1.83;1.63;;;7.90;98.20;;;;;;4985107;28;20529;-71
2022/02/22 09:33:54;;;;;;;1.60;1.30;;;8.00;98.20;;;;;;4980631;28;20502;-71
2022/02/22 09:36:22;;;;;;;1.77;1.67;;;8.00;98.20;;;;;;4978019;28;20985;-72
2022/02/22 09:38:49;;;;;;;1.60;1.30;;;8.10;98.20;;;;;;4984448;28;20563;-71
2022/02/22 09:41:16;;;;;;;1.60;1.20;;;8.20;98.20;;;;;;4983237;28;20461;-70
2022/02/22 09:43:43;;;;;;;1.60;1.17;;;8.30;98.20;;;;;;4985386;28;20546;-71
2022/02/22 09:46:11;;;;;;;1.63;1.33;;;8.30;98.20;;;;;;4976365;28;20480;-71
2022/02/22 09:48:38;;;;;;;1.60;1.20;;;8.40;98.20;;;;;;4996463;28;20880;-71
2022/02/22 09:51:07;;;;;;;1.60;1.20;;;8.40;98.20;;;;;;4988186;28;20992;-69
2022/02/22 09:53:34;;;;;;;1.60;1.30;;;8.50;98.20;;;;;;4985209;28;20558;-71
2022/02/22 09:56:01;;;;;;;1.60;1.30;;;8.60;98.20;;;;;;4980874;28;20469;-74
2022/02/22 09:58:28;;;;;;;1.60;1.20;;;8.70;98.20;;;;;;4985374;28;20489;-70
2022/02/22 10:01:00;;;;;;;1.60;1.30;;;8.80;98.20;;;;;;4984903;28;20520;-71
2022/02/22 10:03:27;;;;;;;1.60;1.20;;;8.80;98.20;;;;;;4984109;28;20523;-71
2022/02/22 10:05:56;;;;;;;1.60;1.30;;;8.90;98.20;;;;;;4983891;28;20551;-75
2022/02/22 10:08:32;;;;;;;1.60;1.13;;;9.00;98.20;;;;;;4984326;28;20853;-71
2022/02/22 10:11:05;;;;;;;1.60;1.10;;;9.10;98.20;;;;;;4984121;28;20782;-72
2022/02/22 10:13:32;;;;;;;1.60;1.10;;;9.10;98.20;;;;;;4983732;28;20469;-71
2022/02/22 10:15:59;;;;;;;1.60;1.20;;;9.10;98.20;;;;;;4984156;28;20866;-71
2022/02/22 10:18:27;;;;;;;1.60;1.30;;;9.20;98.20;;;;;;4986116;28;20503;-72
2022/02/22 10:20:55;;;;;;;1.67;1.40;;;9.20;98.20;;;;;;4987555;28;20472;-71
2022/02/22 10:23:30;;;;;;;1.60;1.20;;;9.20;98.20;;;;;;4985944;28;20552;-71
2022/02/22 10:25:59;;;;;;;1.60;1.20;;;9.30;98.20;;;;;;4982478;28;20551;-72
2022/02/22 10:28:27;;;;;;;1.60;1.10;;;9.30;98.20;;;;;;4983189;28;20600;-72
2022/02/22 10:30:54;;;;;;;1.60;1.10;;;9.40;98.20;;;;;;4978072;28;20528;-71
2022/02/22 10:33:23;;;;;;;1.60;1.20;;;9.40;98.20;;;;;;5002207;28;20465;-71
2022/02/22 10:35:52;;;;;;;1.60;1.20;;;9.50;98.20;;;;;;4977467;28;20923;-72
2022/02/22 10:38:21;;;;;;;1.60;1.10;;;9.50;98.20;;;;;;5074736;23;20887;-73
2022/02/22 10:40:58;;;;;;;1.60;1.20;;;9.50;98.20;;;;;;4986802;28;20485;-75
2022/02/22 10:43:27;;;;;;;1.60;1.20;;;9.60;98.20;;;;;;4985360;28;20474;-72
2022/02/22 10:45:57;;;;;;;1.60;1.10;;;9.60;98.20;;;;;;4986678;28;20497;-72
2022/02/22 10:48:33;;;;;;;1.60;1.20;;;9.60;98.20;;;;;;4987716;28;21118;-73
2022/02/22 10:51:02;;;;;;;1.60;1.10;;;9.60;98.20;;;;;;4984077;28;20471;-72
2022/02/22 10:53:34;;;;;;;1.60;1.20;;;9.60;98.20;;;;;;4987476;28;20479;-73
2022/02/22 10:56:05;;;;;;;1.60;1.30;;;9.60;98.20;;;;;;4987129;28;20885;-70
2022/02/22 10:58:32;;;;;;;1.60;1.20;;;9.60;98.20;;;;;;4985941;28;20484;-70
2022/02/22 11:01:02;;;;;;;1.60;1.10;;;9.60;98.20;;;;;;4973844;28;20460;-70
2022/02/22 11:03:30;;;;;;;1.60;1.10;;;9.70;98.20;;;;;;4974546;28;20961;-72
2022/02/22 11:05:57;;;;;;;1.60;1.20;;;9.70;98.20;;;;;;4986291;28;20465;-71
2022/02/22 11:08:26;;;;;;;1.60;1.20;;;9.70;98.20;;;;;;4988286;28;20535;-72
2022/02/22 11:10:57;;;;;;;1.60;1.10;;;9.70;98.20;;;;;;4984997;28;20489;-71
2022/02/22 11:13:30;;;;;;;1.60;1.20;;;9.70;98.20;;;;;;4986030;28;20532;-71
2022/02/22 11:16:09;;;;;;;1.60;1.20;;;9.70;98.20;;;;;;4983735;28;20476;-69
2022/02/22 11:18:48;;;;;;;1.60;1.10;;;9.70;98.20;;;;;;4987004;28;20488;-72
2022/02/22 11:21:15;;;;;;;1.60;1.30;;;9.60;98.20;;;;;;4984318;28;20894;-71
2022/02/22 11:23:42;;;;;;;1.60;1.30;;;9.60;98.20;;;;;;4987571;28;20496;-70
2022/02/22 11:26:13;;;;;;;1.60;1.20;;;9.60;98.20;;;;;;4986011;28;21354;-71
2022/02/22 11:28:45;;;;;;;1.60;1.20;;;9.60;98.20;;;;;;4987226;28;20485;-70
2022/02/22 11:31:14;;;;;;;1.60;1.20;;;9.50;98.20;;;;;;4981604;28;20492;-70
2022/02/22 11:33:45;;;;;;;1.60;1.10;;;9.50;98.20;;;;;;4986918;28;20470;-70
2022/02/22 11:36:13;;;;;;;1.60;1.10;;;9.50;98.20;;;;;;4986954;28;20474;-69
2022/02/22 11:38:46;;;;;;;1.60;1.20;;;9.50;98.20;;;;;;4988972;28;20588;-70
2022/02/22 11:41:17;;;;;;;1.60;1.20;;;9.50;98.20;;;;;;4984457;28;20469;-70
2022/02/22 11:43:54;;;;;;;1.60;1.20;;;9.50;98.20;;;;;;4987131;28;21059;-71
2022/02/22 11:46:34;;;;;;;1.60;1.10;;;9.50;98.20;;;;;;4983243;28;20468;-70
2022/02/22 11:49:03;;;;;;;1.60;1.10;;;9.50;98.20;;;;;;4985962;28;20911;-70
2022/02/22 11:51:41;;;;;;;1.60;1.10;;;9.50;98.20;;;;;;4985278;28;20465;-70
2022/02/22 11:54:18;;;;;;;1.60;1.10;;;9.60;98.20;;;;;;4984111;28;20466;-70
2022/02/22 11:56:45;;;;;;;1.53;1.10;;;9.60;98.20;;;;;;4984037;28;20840;-71
2022/02/22 11:59:22;;;;;;;1.60;1.13;;;9.60;98.20;;;;;;4985175;28;20488;-71
2022/02/22 12:01:56;;;;;;;1.60;1.13;;;9.70;98.20;;;;;;4984641;28;20476;-72
2022/02/22 12:04:27;;;;;;;1.60;1.20;;;9.70;98.20;;;;;;4984929;28;20563;-73
2022/02/22 12:06:56;;;;;;;1.57;1.10;;;9.80;98.20;;;;;;4986855;28;20493;-71
2022/02/22 12:09:34;;;;;;;1.60;1.10;;;9.80;98.20;;;;;;4982915;28;20489;-71
2022/02/22 12:12:07;;;;;;;1.53;1.20;;;9.80;98.20;;;;;;4985620;28;20472;-71
2022/02/22 12:14:36;;;;;;;1.53;1.17;;;9.80;98.20;;;;;;4983734;28;20472;-71
2022/02/22 12:17:07;;;;;;;1.57;1.10;;;9.70;98.20;;;;;;4984756;28;20461;-71
2022/02/22 12:19:34;;;;;;;1.60;1.10;;;9.70;98.20;;;;;;4983297;28;20481;-70
2022/02/22 12:22:03;;;;;;;1.60;1.20;;;9.70;98.20;;;;;;4983672;28;20519;-72
2022/02/22 12:24:30;;;;;;;1.60;1.20;;;9.70;98.20;;;;;;4985077;28;20481;-73
2022/02/22 12:26:58;;;;;;;1.60;1.10;;;9.80;98.20;;;;;;4976006;28;20488;-72
2022/02/22 12:29:25;;;;;;;1.60;1.10;;;9.80;98.20;;;;;;4980190;28;20583;-71
2022/02/22 12:32:01;;;;;;;1.60;1.20;;;9.80;98.20;;;;;;4980887;28;20869;-72
2022/02/22 12:34:30;;;;;;;1.57;1.10;;;9.80;98.20;;;;;;4982912;28;20658;-71
2022/02/22 12:37:00;;;;;;;1.53;1.10;;;9.80;98.20;;;;;;4981090;28;20891;-72
2022/02/22 12:39:33;;;;;;;1.60;1.20;;;9.70;98.20;;;;;;4981080;28;20489;-71
2022/02/22 12:42:02;;;;;;;1.57;1.10;;;9.70;98.20;;;;;;4969017;28;20488;-70
2022/02/22 12:44:30;;;;;;;1.60;1.10;;;9.60;98.20;;;;;;4978116;28;21031;-72
2022/02/22 12:47:01;;;;;;;1.57;1.10;;;9.50;98.20;;;;;;4970774;28;21287;-69
2022/02/22 12:49:28;;;;;;;1.60;1.20;;;9.50;98.20;;;;;;4979017;28;20489;-70
2022/02/22 12:52:00;;;;;;;1.60;1.20;;;9.40;98.20;;;;;;4972459;28;20489;-70
2022/02/22 12:54:28;;;;;;;1.60;1.20;;;9.30;98.20;;;;;;4985230;28;20464;-72
2022/02/22 12:56:57;;;;;;;1.70;1.40;;;9.30;98.20;;;;;;4984048;28;20472;-70
2022/02/22 12:59:28;;;;;;;1.60;1.10;;;9.30;98.20;;;;;;4983695;28;20485;-72
2022/02/22 13:01:56;;;;;;;1.60;1.23;;;9.20;98.20;;;;;;4981684;28;20492;-71